sensor_id;sensor_type;location;lat;lon;timestamp;pressure;altitude;pressure_sealevel;temperature;humidity
50592;BME280;36548;50.506;30.834;2023-05-14T00:00:49;100649.31;;;19.56;33.85
50592;BME280;36548;50.506;30.834;2023-05-14T00:01:58;100653.06;;;19.46;33.64
50592;BME280;36548;50.506;30.834;2023-05-14T00:03:13;100642.87;;;19.57;34.08
50592;BME280;36548;50.506;30.834;2023-05-14T00:04:22;100654.64;;;19.48;34.62
50592;BME280;36548;50.506;30.834;2023-05-14T00:05:33;100653.48;;;19.51;35.16
50592;BME280;36548;50.506;30.834;2023-05-14T00:06:48;100649.58;;;19.63;35.49
50592;BME280;36548;50.506;30.834;2023-05-14T00:07:59;100650.77;;;19.51;35.56
50592;BME280;36548;50.506;30.834;2023-05-14T00:09:14;100654.45;;;19.59;35.12
50592;BME280;36548;50.506;30.834;2023-05-14T00:10:25;100653.48;;;19.51;34.72
50592;BME280;36548;50.506;30.834;2023-05-14T00:11:42;100652.46;;;19.62;34.44
50592;BME280;36548;50.506;30.834;2023-05-14T00:12:51;100656.06;;;19.52;34.23
50592;BME280;36548;50.506;30.834;2023-05-14T00:14:06;100659.17;;;19.67;34.17
50592;BME280;36548;50.506;30.834;2023-05-14T00:15:16;100658.33;;;19.57;34.13
50592;BME280;36548;50.506;30.834;2023-05-14T00:16:51;100659.56;;;19.72;34.34
50592;BME280;36548;50.506;30.834;2023-05-14T00:18:02;100656.88;;;19.63;34.71
50592;BME280;36548;50.506;30.834;2023-05-14T00:19:17;100655.84;;;19.73;35.11
50592;BME280;36548;50.506;30.834;2023-05-14T00:20:27;100664.05;;;19.64;35.11
50592;BME280;36548;50.506;30.834;2023-05-14T00:21:43;100659.29;;;19.75;35.45
50592;BME280;36548;50.506;30.834;2023-05-14T00:22:53;100658.45;;;19.65;35.45
50592;BME280;36548;50.506;30.834;2023-05-14T00:24:09;100658.72;;;19.72;35.72
50592;BME280;36548;50.506;30.834;2023-05-14T00:25:19;100663.50;;;19.60;35.48
50592;BME280;36548;50.506;30.834;2023-05-14T00:26:34;100659.87;;;19.69;35.44
50592;BME280;36548;50.506;30.834;2023-05-14T00:27:45;100668.80;;;19.62;35.33
50592;BME280;36548;50.506;30.834;2023-05-14T00:29:01;100664.89;;;19.74;35.26
50592;BME280;36548;50.506;30.834;2023-05-14T00:30:11;100664.89;;;19.64;35.43
50592;BME280;36548;50.506;30.834;2023-05-14T00:31:27;100665.89;;;19.73;35.81
50592;BME280;36548;50.506;30.834;2023-05-14T00:32:36;100669.49;;;19.64;35.92
50592;BME280;36548;50.506;30.834;2023-05-14T00:33:46;100673.94;;;19.65;36.56
50592;BME280;36548;50.506;30.834;2023-05-14T00:34:57;100674.09;;;19.63;36.44
50592;BME280;36548;50.506;30.834;2023-05-14T00:36:08;100670.64;;;19.61;35.72
50592;BME280;36548;50.506;30.834;2023-05-14T00:37:23;100669.19;;;19.67;35.55
50592;BME280;36548;50.506;30.834;2023-05-14T00:38:33;100671.39;;;19.53;35.46
50592;BME280;36548;50.506;30.834;2023-05-14T00:39:48;100666.08;;;19.62;35.40
50592;BME280;36548;50.506;30.834;2023-05-14T00:40:59;100666.22;;;19.50;35.03
50592;BME280;36548;50.506;30.834;2023-05-14T00:42:14;100664.50;;;19.59;35.12
50592;BME280;36548;50.506;30.834;2023-05-14T00:43:23;100667.41;;;19.48;35.23
50592;BME280;36548;50.506;30.834;2023-05-14T00:44:40;100663.50;;;19.60;35.48
50592;BME280;36548;50.506;30.834;2023-05-14T00:45:50;100660.66;;;19.52;35.70
50592;BME280;36548;50.506;30.834;2023-05-14T00:47:06;100657.75;;;19.63;35.72
50592;BME280;36548;50.506;30.834;2023-05-14T00:48:16;100656.06;;;19.52;35.18
50592;BME280;36548;50.506;30.834;2023-05-14T00:49:27;100659.08;;;19.49;34.59
50592;BME280;36548;50.506;30.834;2023-05-14T00:50:42;100651.73;;;19.59;34.73
50592;BME280;36548;50.506;30.834;2023-05-14T00:51:52;100652.36;;;19.44;34.73
50592;BME280;36548;50.506;30.834;2023-05-14T00:53:02;100653.52;;;19.41;34.72
50592;BME280;36548;50.506;30.834;2023-05-14T00:54:20;100650.34;;;19.46;34.80
50592;BME280;36548;50.506;30.834;2023-05-14T00:55:32;100650.66;;;19.33;34.89
50592;BME280;36548;50.506;30.834;2023-05-14T00:56:49;100645.34;;;19.41;35.06
50592;BME280;36548;50.506;30.834;2023-05-14T00:57:59;100643.80;;;19.29;35.18
50592;BME280;36548;50.506;30.834;2023-05-14T00:59:15;100642.92;;;19.38;35.37
50592;BME280;36548;50.506;30.834;2023-05-14T01:00:25;100643.22;;;19.25;35.44
50592;BME280;36548;50.506;30.834;2023-05-14T01:01:40;100639.05;;;19.31;35.58
50592;BME280;36548;50.506;30.834;2023-05-14T01:02:51;100644.11;;;19.16;35.67
50592;BME280;36548;50.506;30.834;2023-05-14T01:04:00;100645.41;;;19.12;35.80
50592;BME280;36548;50.506;30.834;2023-05-14T01:05:16;100647.08;;;19.22;35.96
50592;BME280;36548;50.506;30.834;2023-05-14T01:07:56;100654.12;;;19.15;36.21
50592;BME280;36548;50.506;30.834;2023-05-14T01:10:38;100649.27;;;19.09;36.07
50592;BME280;36548;50.506;30.834;2023-05-14T01:12:04;100656.83;;;18.86;36.38
50592;BME280;36548;50.506;30.834;2023-05-14T01:13:27;100654.43;;;18.93;35.50
50592;BME280;36548;50.506;30.834;2023-05-14T01:16:23;100648.40;;;18.99;34.07
50592;BME280;36548;50.506;30.834;2023-05-14T01:18:55;100651.70;;;19.02;32.77
50592;BME280;36548;50.506;30.834;2023-05-14T01:20:06;100652.27;;;18.96;32.72
50592;BME280;36548;50.506;30.834;2023-05-14T01:22:41;100649.25;;;19.19;32.37
50592;BME280;36548;50.506;30.834;2023-05-14T01:23:52;100650.99;;;19.10;31.56
50592;BME280;36548;50.506;30.834;2023-05-14T01:25:08;100650.38;;;19.26;31.27
50592;BME280;36548;50.506;30.834;2023-05-14T01:26:18;100653.55;;;19.21;31.54
50592;BME280;36548;50.506;30.834;2023-05-14T01:29:20;100648.26;;;19.20;32.15
50592;BME280;36548;50.506;30.834;2023-05-14T01:31:09;100649.25;;;19.19;33.23
50592;BME280;36548;50.506;30.834;2023-05-14T01:32:19;100655.41;;;19.11;33.30
50592;BME280;36548;50.506;30.834;2023-05-14T01:33:32;100660.45;;;19.06;33.64
50592;BME280;36548;50.506;30.834;2023-05-14T01:34:49;100655.00;;;19.16;33.47
50592;BME280;36548;50.506;30.834;2023-05-14T01:36:01;100661.15;;;19.08;33.40
50592;BME280;36548;50.506;30.834;2023-05-14T01:37:18;100659.16;;;19.10;33.65
50592;BME280;36548;50.506;30.834;2023-05-14T01:38:28;100660.02;;;19.01;33.79
50592;BME280;36548;50.506;30.834;2023-05-14T01:39:46;100658.86;;;19.13;34.07
50592;BME280;36548;50.506;30.834;2023-05-14T01:42:18;100655.01;;;19.06;34.43
50592;BME280;36548;50.506;30.834;2023-05-14T01:43:33;100657.28;;;19.11;33.00
50592;BME280;36548;50.506;30.834;2023-05-14T01:44:42;100657.99;;;19.03;30.87
50592;BME280;36548;50.506;30.834;2023-05-14T01:45:52;100669.59;;;19.15;30.83
50592;BME280;36548;50.506;30.834;2023-05-14T01:47:04;100660.57;;;19.24;30.17
50592;BME280;36548;50.506;30.834;2023-05-14T01:48:20;100653.91;;;19.46;29.85
50592;BME280;36548;50.506;30.834;2023-05-14T01:49:29;100656.63;;;19.46;29.97
50592;BME280;36548;50.506;30.834;2023-05-14T01:50:44;100651.00;;;19.67;29.54
50592;BME280;36548;50.506;30.834;2023-05-14T01:51:53;100652.31;;;19.63;29.12
50592;BME280;36548;50.506;30.834;2023-05-14T01:53:09;100651.39;;;19.82;28.97
50592;BME280;36548;50.506;30.834;2023-05-14T01:54:19;100653.69;;;19.77;28.83
50592;BME280;36548;50.506;30.834;2023-05-14T01:55:35;100661.81;;;19.97;27.84
50592;BME280;36548;50.506;30.834;2023-05-14T01:56:45;100656.67;;;19.93;27.92
50592;BME280;36548;50.506;30.834;2023-05-14T01:58:00;100654.70;;;20.14;27.81
50592;BME280;36548;50.506;30.834;2023-05-14T01:59:09;100654.70;;;20.14;28.20
50592;BME280;36548;50.506;30.834;2023-05-14T02:00:25;100642.42;;;20.27;27.82
50592;BME280;36548;50.506;30.834;2023-05-14T02:01:34;100645.77;;;20.21;27.87
50592;BME280;36548;50.506;30.834;2023-05-14T02:02:50;100640.20;;;20.41;28.10
50592;BME280;36548;50.506;30.834;2023-05-14T02:03:59;100642.67;;;20.34;28.25
50592;BME280;36548;50.506;30.834;2023-05-14T02:05:14;100631.07;;;20.50;28.33
50592;BME280;36548;50.506;30.834;2023-05-14T02:06:25;100642.61;;;20.44;28.03
50592;BME280;36548;50.506;30.834;2023-05-14T02:07:40;100634.60;;;20.60;27.92
50592;BME280;36548;50.506;30.834;2023-05-14T02:08:49;100644.42;;;20.53;28.06
50592;BME280;36548;50.506;30.834;2023-05-14T02:10:07;100637.56;;;20.67;28.06
50592;BME280;36548;50.506;30.834;2023-05-14T02:11:17;100635.61;;;20.59;27.82
50592;BME280;36548;50.506;30.834;2023-05-14T02:12:32;100631.83;;;20.70;27.49
50592;BME280;36548;50.506;30.834;2023-05-14T02:13:41;100638.17;;;20.61;27.56
50592;BME280;36548;50.506;30.834;2023-05-14T02:14:56;100634.23;;;20.73;27.60
50592;BME280;36548;50.506;30.834;2023-05-14T02:16:07;100634.28;;;20.64;27.91
50592;BME280;36548;50.506;30.834;2023-05-14T02:17:24;100632.67;;;20.71;28.18
50592;BME280;36548;50.506;30.834;2023-05-14T02:18:34;100638.49;;;20.58;28.32
50592;BME280;36548;50.506;30.834;2023-05-14T02:19:50;100631.55;;;20.64;28.48
50592;BME280;36548;50.506;30.834;2023-05-14T02:20:59;100630.22;;;20.50;28.60
50592;BME280;36548;50.506;30.834;2023-05-14T02:22:08;100634.98;;;20.48;28.81
50592;BME280;36548;50.506;30.834;2023-05-14T02:23:17;100632.39;;;20.46;29.01
50592;BME280;36548;50.506;30.834;2023-05-14T02:24:32;100636.08;;;20.55;29.41
50592;BME280;36548;50.506;30.834;2023-05-14T02:25:41;100639.19;;;20.42;29.88
50592;BME280;36548;50.506;30.834;2023-05-14T02:26:51;100630.77;;;20.35;30.34
50592;BME280;36548;50.506;30.834;2023-05-14T02:28:07;100637.78;;;20.38;30.98
50592;BME280;36548;50.506;30.834;2023-05-14T02:29:18;100640.81;;;20.07;31.80
50592;BME280;36548;50.506;30.834;2023-05-14T02:30:36;100632.05;;;20.13;31.65
50592;BME280;36548;50.506;30.834;2023-05-14T02:31:49;100640.27;;;20.03;31.69
50592;BME280;36548;50.506;30.834;2023-05-14T02:33:07;100635.46;;;20.15;31.82
50592;BME280;36548;50.506;30.834;2023-05-14T02:34:20;100644.00;;;20.02;32.06
50592;BME280;36548;50.506;30.834;2023-05-14T02:35:35;100635.20;;;20.08;32.26
50592;BME280;36548;50.506;30.834;2023-05-14T02:36:46;100626.70;;;19.93;32.19
50592;BME280;36548;50.506;30.834;2023-05-14T02:38:01;100633.36;;;20.09;32.06
50592;BME280;36548;50.506;30.834;2023-05-14T02:39:10;100633.10;;;20.02;31.90
50592;BME280;36548;50.506;30.834;2023-05-14T02:40:26;100634.14;;;20.19;31.69
50592;BME280;36548;50.506;30.834;2023-05-14T02:41:34;100631.02;;;20.14;31.50
50592;BME280;36548;50.506;30.834;2023-05-14T02:42:50;100624.91;;;20.30;31.04
50592;BME280;36548;50.506;30.834;2023-05-14T02:44:00;100634.40;;;20.26;31.01
50592;BME280;36548;50.506;30.834;2023-05-14T02:45:16;100626.25;;;20.44;31.01
50592;BME280;36548;50.506;30.834;2023-05-14T02:46:26;100626.16;;;20.36;30.84
50592;BME280;36548;50.506;30.834;2023-05-14T02:47:36;100632.70;;;20.43;30.74
50592;BME280;36548;50.506;30.834;2023-05-14T02:48:52;100635.44;;;20.61;30.42
50592;BME280;36548;50.506;30.834;2023-05-14T02:50:00;100637.55;;;20.49;30.71
50592;BME280;36548;50.506;30.834;2023-05-14T02:51:19;100629.67;;;20.64;30.84
50592;BME280;36548;50.506;30.834;2023-05-14T02:52:29;100641.06;;;20.59;30.98
50592;BME280;36548;50.506;30.834;2023-05-14T02:53:45;100638.13;;;20.71;31.12
50592;BME280;36548;50.506;30.834;2023-05-14T02:54:54;100641.62;;;20.63;31.25
50592;BME280;36548;50.506;30.834;2023-05-14T02:56:09;100632.59;;;20.81;31.35
50592;BME280;36548;50.506;30.834;2023-05-14T02:57:19;100643.30;;;20.74;31.31
50592;BME280;36548;50.506;30.834;2023-05-14T02:58:30;100643.14;;;20.75;31.57
50592;BME280;36548;50.506;30.834;2023-05-14T02:59:39;100639.84;;;20.72;31.72
50592;BME280;36548;50.506;30.834;2023-05-14T03:00:56;100635.72;;;20.86;31.79
50592;BME280;36548;50.506;30.834;2023-05-14T03:02:06;100636.36;;;20.80;31.72
50592;BME280;36548;50.506;30.834;2023-05-14T03:03:18;100640.84;;;20.89;31.70
50592;BME280;36548;50.506;30.834;2023-05-14T03:04:33;100626.83;;;21.02;31.66
50592;BME280;36548;50.506;30.834;2023-05-14T03:05:42;100639.92;;;20.98;31.64
50592;BME280;36548;50.506;30.834;2023-05-14T03:07:01;100627.41;;;21.14;31.63
50592;BME280;36548;50.506;30.834;2023-05-14T03:08:11;100640.67;;;21.08;31.57
50592;BME280;36548;50.506;30.834;2023-05-14T03:09:20;100635.77;;;21.12;31.46
50592;BME280;36548;50.506;30.834;2023-05-14T03:10:30;100640.37;;;21.11;31.62
50592;BME280;36548;50.506;30.834;2023-05-14T03:11:41;100633.27;;;21.19;31.61
50592;BME280;36548;50.506;30.834;2023-05-14T03:12:50;100633.78;;;21.22;31.47
50592;BME280;36548;50.506;30.834;2023-05-14T03:14:06;100639.36;;;21.39;31.48
50592;BME280;36548;50.506;30.834;2023-05-14T03:15:16;100633.38;;;21.35;31.44
50592;BME280;36548;50.506;30.834;2023-05-14T03:16:32;100634.50;;;21.51;31.48
50592;BME280;36548;50.506;30.834;2023-05-14T03:17:41;100638.58;;;21.46;31.42
50592;BME280;36548;50.506;30.834;2023-05-14T03:18:52;100638.95;;;21.52;31.48
50592;BME280;36548;50.506;30.834;2023-05-14T03:20:08;100636.03;;;21.71;31.49
50592;BME280;36548;50.506;30.834;2023-05-14T03:21:18;100642.67;;;21.69;31.43
50592;BME280;36548;50.506;30.834;2023-05-14T03:22:28;100637.59;;;21.82;31.32
50592;BME280;36548;50.506;30.834;2023-05-14T03:23:39;100634.91;;;21.90;31.20
50592;BME280;36548;50.506;30.834;2023-05-14T03:24:54;100631.06;;;22.09;31.04
50592;BME280;36548;50.506;30.834;2023-05-14T03:26:03;100634.30;;;22.05;31.01
50592;BME280;36548;50.506;30.834;2023-05-14T03:27:20;100632.30;;;22.23;30.94
50592;BME280;36548;50.506;30.834;2023-05-14T03:28:30;100634.87;;;22.25;31.00
50592;BME280;36548;50.506;30.834;2023-05-14T03:29:41;100631.71;;;22.38;30.51
50592;BME280;36548;50.506;30.834;2023-05-14T03:30:57;100626.98;;;22.81;30.09
50592;BME280;36548;50.506;30.834;2023-05-14T03:32:07;100629.23;;;23.19;29.76
50592;BME280;36548;50.506;30.834;2023-05-14T03:33:16;100631.17;;;23.74;28.95
50592;BME280;36548;50.506;30.834;2023-05-14T03:34:33;100633.12;;;24.45;27.94
50592;BME280;36548;50.506;30.834;2023-05-14T03:35:44;100624.38;;;24.73;26.83
50592;BME280;36548;50.506;30.834;2023-05-14T03:36:54;100625.62;;;25.08;26.88
50592;BME280;36548;50.506;30.834;2023-05-14T03:38:10;100620.72;;;25.57;26.31
50592;BME280;36548;50.506;30.834;2023-05-14T03:39:19;100625.83;;;25.60;25.93
50592;BME280;36548;50.506;30.834;2023-05-14T03:40:35;100618.72;;;25.80;25.69
50592;BME280;36548;50.506;30.834;2023-05-14T03:41:45;100618.08;;;25.78;25.74
50592;BME280;36548;50.506;30.834;2023-05-14T03:43:00;100619.69;;;25.88;25.77
50592;BME280;36548;50.506;30.834;2023-05-14T03:44:10;100626.87;;;25.89;25.89
50592;BME280;36548;50.506;30.834;2023-05-14T03:45:25;100620.36;;;26.05;25.56
50592;BME280;36548;50.506;30.834;2023-05-14T03:46:36;100616.55;;;26.06;25.85
50592;BME280;36548;50.506;30.834;2023-05-14T03:47:51;100622.22;;;26.19;25.50
50592;BME280;36548;50.506;30.834;2023-05-14T03:49:01;100619.58;;;26.11;25.59
50592;BME280;36548;50.506;30.834;2023-05-14T03:50:17;100616.08;;;26.17;25.32
50592;BME280;36548;50.506;30.834;2023-05-14T03:51:28;100625.19;;;26.02;25.54
50592;BME280;36548;50.506;30.834;2023-05-14T03:52:38;100625.86;;;26.05;25.35
50592;BME280;36548;50.506;30.834;2023-05-14T03:53:54;100620.45;;;26.11;25.40
50592;BME280;36548;50.506;30.834;2023-05-14T03:55:03;100627.94;;;26.02;25.37
50592;BME280;36548;50.506;30.834;2023-05-14T03:56:20;100623.01;;;26.13;25.37
50592;BME280;36548;50.506;30.834;2023-05-14T03:57:29;100629.66;;;26.03;25.42
50592;BME280;36548;50.506;30.834;2023-05-14T03:58:44;100624.69;;;26.14;25.44
50592;BME280;36548;50.506;30.834;2023-05-14T03:59:53;100619.40;;;25.97;25.58
50592;BME280;36548;50.506;30.834;2023-05-14T04:01:08;100627.09;;;26.02;25.65
50592;BME280;36548;50.506;30.834;2023-05-14T04:02:18;100625.84;;;25.90;25.70
50592;BME280;36548;50.506;30.834;2023-05-14T04:03:34;100617.20;;;25.93;25.87
50592;BME280;36548;50.506;30.834;2023-05-14T04:04:43;100622.70;;;25.78;26.03
50592;BME280;36548;50.506;30.834;2023-05-14T04:05:52;100624.31;;;25.72;26.13
50592;BME280;36548;50.506;30.834;2023-05-14T04:07:09;100613.80;;;25.76;26.31
50592;BME280;36548;50.506;30.834;2023-05-14T04:08:20;100626.89;;;25.59;26.46
50592;BME280;36548;50.506;30.834;2023-05-14T04:09:30;100631.33;;;25.60;26.47
50592;BME280;36548;50.506;30.834;2023-05-14T04:10:45;100620.15;;;25.76;26.47
50592;BME280;36548;50.506;30.834;2023-05-14T04:11:54;100628.97;;;25.72;26.41
50592;BME280;36548;50.506;30.834;2023-05-14T04:13:29;100625.36;;;25.86;26.41
50592;BME280;36548;50.506;30.834;2023-05-14T04:14:40;100630.50;;;25.74;26.65
50592;BME280;36548;50.506;30.834;2023-05-14T04:15:49;100626.97;;;25.80;26.72
50592;BME280;36548;50.506;30.834;2023-05-14T04:16:59;100630.02;;;25.85;26.68
50592;BME280;36548;50.506;30.834;2023-05-14T04:18:09;100627.95;;;25.88;26.33
50592;BME280;36548;50.506;30.834;2023-05-14T04:19:17;100627.07;;;25.87;26.45
50592;BME280;36548;50.506;30.834;2023-05-14T04:20:28;100628.20;;;25.93;26.44
50592;BME280;36548;50.506;30.834;2023-05-14T04:21:38;100626.97;;;25.95;26.11
50592;BME280;36548;50.506;30.834;2023-05-14T04:23:00;100625.47;;;26.08;25.86
50592;BME280;36548;50.506;30.834;2023-05-14T04:24:09;100631.83;;;25.93;25.08
50592;BME280;36548;50.506;30.834;2023-05-14T04:25:25;100629.00;;;26.01;25.16
50592;BME280;36548;50.506;30.834;2023-05-14T04:26:35;100623.19;;;25.96;25.38
50592;BME280;36548;50.506;30.834;2023-05-14T04:27:44;100622.15;;;25.97;25.22
50592;BME280;36548;50.506;30.834;2023-05-14T04:28:54;100625.20;;;25.88;24.55
50592;BME280;36548;50.506;30.834;2023-05-14T04:30:11;100630.30;;;26.06;24.21
50592;BME280;36548;50.506;30.834;2023-05-14T04:31:21;100627.36;;;25.92;24.01
50592;BME280;36548;50.506;30.834;2023-05-14T04:32:36;100623.58;;;25.93;23.99
50592;BME280;36548;50.506;30.834;2023-05-14T04:33:47;100632.12;;;25.83;23.87
50592;BME280;36548;50.506;30.834;2023-05-14T04:35:02;100621.76;;;26.00;24.40
50592;BME280;36548;50.506;30.834;2023-05-14T04:36:13;100630.95;;;25.93;24.05
50592;BME280;36548;50.506;30.834;2023-05-14T04:37:28;100625.47;;;26.08;23.90
50592;BME280;36548;50.506;30.834;2023-05-14T04:38:37;100624.99;;;26.04;23.80
50592;BME280;36548;50.506;30.834;2023-05-14T04:39:53;100619.28;;;26.20;23.74
50592;BME280;36548;50.506;30.834;2023-05-14T04:41:03;100619.97;;;26.08;23.66
50592;BME280;36548;50.506;30.834;2023-05-14T05:41:08;100627.27;;;26.52;22.35
50592;BME280;36548;50.506;30.834;2023-05-14T05:42:18;100635.73;;;26.50;22.40
50592;BME280;36548;50.506;30.834;2023-05-14T05:43:34;100627.22;;;26.67;22.48
50592;BME280;36548;50.506;30.834;2023-05-14T05:44:43;100630.62;;;26.69;22.59
50592;BME280;36548;50.506;30.834;2023-05-14T05:45:52;100627.86;;;26.69;22.65
50592;BME280;36548;50.506;30.834;2023-05-14T05:47:08;100629.48;;;26.78;22.69
50592;BME280;36548;50.506;30.834;2023-05-14T05:48:19;100633.87;;;26.73;22.70
50592;BME280;36548;50.506;30.834;2023-05-14T05:49:34;100624.61;;;26.80;22.62
50592;BME280;36548;50.506;30.834;2023-05-14T05:50:48;100629.98;;;26.67;22.53
50592;BME280;36548;50.506;30.834;2023-05-14T05:52:04;100630.92;;;26.74;22.62
50592;BME280;36548;50.506;30.834;2023-05-14T05:53:12;100637.96;;;26.62;22.29
50592;BME280;36548;50.506;30.834;2023-05-14T05:54:30;100626.66;;;26.71;22.50
50592;BME280;36548;50.506;30.834;2023-05-14T05:55:43;100626.34;;;26.66;22.26
50592;BME280;36548;50.506;30.834;2023-05-14T05:56:53;100627.22;;;26.67;22.38
50592;BME280;36548;50.506;30.834;2023-05-14T05:58:09;100626.52;;;26.80;22.43
50592;BME280;36548;50.506;30.834;2023-05-14T05:59:17;100627.97;;;26.76;22.57
50592;BME280;36548;50.506;30.834;2023-05-14T06:00:32;100627.00;;;26.83;22.61
50592;BME280;36548;50.506;30.834;2023-05-14T06:01:42;100630.52;;;26.77;22.68
50592;BME280;36548;50.506;30.834;2023-05-14T06:02:57;100630.02;;;26.52;22.98
50592;BME280;36548;50.506;30.834;2023-05-14T06:04:07;100634.37;;;26.61;23.02
50592;BME280;36548;50.506;30.834;2023-05-14T06:05:18;100629.01;;;26.75;23.14
50592;BME280;36548;50.506;30.834;2023-05-14T06:06:28;100628.14;;;26.96;23.11
50592;BME280;36548;50.506;30.834;2023-05-14T06:07:45;100624.91;;;27.14;22.69
50592;BME280;36548;50.506;30.834;2023-05-14T06:08:55;100634.52;;;26.96;22.63
50592;BME280;36548;50.506;30.834;2023-05-14T06:10:06;100634.26;;;26.91;22.66
50592;BME280;36548;50.506;30.834;2023-05-14T06:11:21;100630.19;;;27.09;22.64
50592;BME280;36548;50.506;30.834;2023-05-14T06:12:30;100625.02;;;26.99;22.69
50592;BME280;36548;50.506;30.834;2023-05-14T06:13:47;100630.48;;;27.20;22.63
50592;BME280;36548;50.506;30.834;2023-05-14T06:14:56;100632.88;;;27.02;22.33
50592;BME280;36548;50.506;30.834;2023-05-14T06:16:11;100623.98;;;27.28;22.37
50592;BME280;36548;50.506;30.834;2023-05-14T06:17:20;100629.70;;;27.27;22.23
50592;BME280;36548;50.506;30.834;2023-05-14T06:18:35;100630.27;;;27.44;22.25
50592;BME280;36548;50.506;30.834;2023-05-14T06:19:46;100630.80;;;27.32;22.27
50592;BME280;36548;50.506;30.834;2023-05-14T06:20:55;100624.91;;;27.35;22.27
50592;BME280;36548;50.506;30.834;2023-05-14T06:22:10;100621.85;;;27.52;22.23
50592;BME280;36548;50.506;30.834;2023-05-14T06:23:20;100626.47;;;27.45;22.07
50592;BME280;36548;50.506;30.834;2023-05-14T06:24:29;100624.61;;;27.52;22.05
50592;BME280;36548;50.506;30.834;2023-05-14T06:25:44;100617.31;;;27.72;22.14
50592;BME280;36548;50.506;30.834;2023-05-14T06:26:53;100621.75;;;27.73;22.29
50592;BME280;36548;50.506;30.834;2023-05-14T06:28:03;100627.98;;;27.82;22.07
50592;BME280;36548;50.506;30.834;2023-05-14T06:29:18;100619.81;;;28.02;21.53
50592;BME280;36548;50.506;30.834;2023-05-14T06:30:27;100622.12;;;27.99;21.49
50592;BME280;36548;50.506;30.834;2023-05-14T06:31:42;100606.72;;;28.11;21.17
50592;BME280;36548;50.506;30.834;2023-05-14T06:32:51;100622.41;;;28.11;21.21
50592;BME280;36548;50.506;30.834;2023-05-14T06:34:00;100616.25;;;28.09;20.96
50592;BME280;36548;50.506;30.834;2023-05-14T06:35:16;100618.45;;;28.27;20.78
50592;BME280;36548;50.506;30.834;2023-05-14T06:36:25;100618.39;;;28.13;20.67
50592;BME280;36548;50.506;30.834;2023-05-14T06:37:34;100615.20;;;28.16;20.44
50592;BME280;36548;50.506;30.834;2023-05-14T06:38:43;100619.92;;;28.22;20.65
50592;BME280;36548;50.506;30.834;2023-05-14T06:40:00;100616.79;;;28.39;20.57
50592;BME280;36548;50.506;30.834;2023-05-14T06:41:08;100610.80;;;28.29;20.27
50592;BME280;36548;50.506;30.834;2023-05-14T06:42:24;100615.92;;;28.38;20.48
50592;BME280;36548;50.506;30.834;2023-05-14T06:43:34;100614.21;;;28.31;20.59
50592;BME280;36548;50.506;30.834;2023-05-14T06:44:50;100612.73;;;28.41;20.39
50592;BME280;36548;50.506;30.834;2023-05-14T06:45:59;100621.84;;;28.29;20.40
50592;BME280;36548;50.506;30.834;2023-05-14T06:47:09;100618.66;;;28.32;20.39
50592;BME280;36548;50.506;30.834;2023-05-14T06:48:18;100612.74;;;28.35;20.39
50592;BME280;36548;50.506;30.834;2023-05-14T06:49:34;100611.89;;;28.41;20.50
50592;BME280;36548;50.506;30.834;2023-05-14T06:50:47;100617.39;;;28.34;20.44
50592;BME280;36548;50.506;30.834;2023-05-14T06:52:03;100617.60;;;28.33;20.58
50592;BME280;36548;50.506;30.834;2023-05-14T06:53:13;100630.72;;;28.17;20.66
50592;BME280;36548;50.506;30.834;2023-05-14T06:54:28;100617.37;;;28.28;20.84
50592;BME280;36548;50.506;30.834;2023-05-14T06:55:38;100613.55;;;28.29;20.99
50592;BME280;36548;50.506;30.834;2023-05-14T06:56:53;100605.92;;;28.37;20.88
50592;BME280;36548;50.506;30.834;2023-05-14T06:58:05;100616.55;;;28.34;20.92
50592;BME280;36548;50.506;30.834;2023-05-14T06:59:20;100619.98;;;28.49;20.94
50592;BME280;36548;50.506;30.834;2023-05-14T07:00:29;100619.13;;;28.42;20.78
50592;BME280;36548;50.506;30.834;2023-05-14T07:01:45;100616.17;;;28.50;20.31
50592;BME280;36548;50.506;30.834;2023-05-14T07:02:54;100621.25;;;28.47;20.49
50592;BME280;36548;50.506;30.834;2023-05-14T07:04:04;100615.97;;;28.52;20.57
50592;BME280;36548;50.506;30.834;2023-05-14T07:05:19;100613.45;;;28.64;20.69
50592;BME280;36548;50.506;30.834;2023-05-14T07:06:28;100619.38;;;28.61;20.67
50592;BME280;36548;50.506;30.834;2023-05-14T07:07:44;100608.62;;;28.79;20.53
50592;BME280;36548;50.506;30.834;2023-05-14T07:08:52;100614.73;;;28.68;20.41
50592;BME280;36548;50.506;30.834;2023-05-14T07:10:08;100615.20;;;28.78;20.41
50592;BME280;36548;50.506;30.834;2023-05-14T07:11:17;100622.42;;;28.72;20.47
50592;BME280;36548;50.506;30.834;2023-05-14T07:12:27;100618.98;;;28.64;20.07
50592;BME280;36548;50.506;30.834;2023-05-14T07:13:43;100618.49;;;28.47;20.24
50592;BME280;36548;50.506;30.834;2023-05-14T07:14:51;100613.61;;;28.42;20.31
50592;BME280;36548;50.506;30.834;2023-05-14T07:16:00;100619.55;;;28.46;20.25
50592;BME280;36548;50.506;30.834;2023-05-14T07:17:15;100619.59;;;28.59;20.21
50592;BME280;36548;50.506;30.834;2023-05-14T07:18:25;100614.25;;;28.51;20.17
50592;BME280;36548;50.506;30.834;2023-05-14T07:19:41;100608.95;;;28.49;19.71
50592;BME280;36548;50.506;30.834;2023-05-14T07:20:50;100616.78;;;28.46;20.17
50592;BME280;36548;50.506;30.834;2023-05-14T07:22:05;100617.23;;;28.49;19.78
50592;BME280;36548;50.506;30.834;2023-05-14T07:23:14;100622.09;;;28.40;19.73
50592;BME280;36548;50.506;30.834;2023-05-14T07:24:29;100611.70;;;28.49;19.65